Time;durP1;ratioP1;P1;durP2;ratioP2;P2;SDS_P1;SDS_P2;PMS_P1;PMS_P2;Temp;Humidity;BMP_temperature;BMP_pressure;BME280_temperature;BME280_humidity;BME280_pressure;Samples;Min_cycle;Max_cycle;Signal;HPM_P1;HPM_P2
2021/08/19 00:00:12;;;;;;;10.13;6.83;;;;;;;16.41;74.42;101399.75;5083690;28;21058;-72
2021/08/19 00:02:40;;;;;;;9.57;7.43;;;;;;;16.30;74.99;101395.25;5082182;28;20211;-71
2021/08/19 00:05:07;;;;;;;12.93;8.50;;;;;;;16.19;75.48;101395.09;5082202;28;20214;-71
2021/08/19 00:07:33;;;;;;;9.83;8.83;;;;;;;16.53;74.59;101389.66;5085550;28;20216;-71
2021/08/19 00:10:00;;;;;;;12.73;9.10;;;;;;;16.58;74.40;101387.03;5083579;28;20237;-71
2021/08/19 00:12:26;;;;;;;11.00;9.90;;;;;;;16.67;73.77;101373.94;5082287;28;20232;-71
2021/08/19 00:14:52;;;;;;;10.13;8.70;;;;;;;16.71;73.68;101385.88;5083152;28;20229;-71
2021/08/19 00:17:19;;;;;;;11.63;10.63;;;;;;;16.55;74.54;101386.72;5082036;28;21120;-71
2021/08/19 00:19:46;;;;;;;10.43;9.43;;;;;;;16.66;73.75;101392.00;5084708;28;20214;-71
2021/08/19 00:22:13;;;;;;;12.53;10.10;;;;;;;16.54;74.64;101380.50;5085636;28;20211;-71
2021/08/19 00:24:39;;;;;;;10.80;9.70;;;;;;;16.74;73.64;101379.97;5084406;28;20281;-71
2021/08/19 00:27:06;;;;;;;11.93;9.37;;;;;;;16.74;73.96;101379.97;5081161;28;20213;-71
2021/08/19 00:29:32;;;;;;;10.23;9.10;;;;;;;16.86;73.22;101380.66;5082049;28;20210;-71
2021/08/19 00:31:59;;;;;;;10.17;9.17;;;;;;;16.95;73.15;101375.66;5081934;28;20702;-71
2021/08/19 00:34:25;;;;;;;9.33;8.43;;;;;;;16.99;72.91;101377.59;5082547;28;20269;-71
2021/08/19 00:36:54;;;;;;;9.30;8.50;;;;;;;16.91;73.13;101375.34;5081670;28;20263;-71
2021/08/19 00:39:20;;;;;;;9.83;8.87;;;;;;;16.84;73.23;101366.63;5083639;28;20234;-71
2021/08/19 00:41:46;;;;;;;10.60;9.50;;;;;;;16.76;73.53;101373.25;5081921;28;20286;-71
2021/08/19 00:44:13;;;;;;;11.80;10.63;;;;;;;16.71;74.03;101372.38;5083799;28;20221;-71
2021/08/19 00:46:42;;;;;;;11.20;10.20;;;;;;;16.85;73.25;101370.94;5080502;28;20610;-71
2021/08/19 00:49:10;;;;;;;11.97;10.30;;;;;;;16.98;72.73;101365.16;5082211;28;20305;-71
2021/08/19 00:51:39;;;;;;;16.60;10.53;;;;;;;16.48;74.19;101371.50;5082899;28;20283;-71
2021/08/19 00:54:09;;;;;;;12.27;11.07;;;;;;;16.56;74.52;101369.47;5081853;28;20582;-71
2021/08/19 00:56:36;;;;;;;12.60;11.50;;;;;;;16.63;74.30;101370.91;5083612;28;20271;-71
2021/08/19 00:59:03;;;;;;;12.20;10.70;;;;;;;16.79;73.48;101371.16;5081969;28;20271;-71
2021/08/19 01:01:29;;;;;;;11.70;10.60;;;;;;;16.49;74.94;101373.16;5084134;28;20725;-71
2021/08/19 01:03:56;;;;;;;12.23;10.73;;;;;;;16.19;75.54;101370.03;5081504;28;20210;-71
2021/08/19 01:06:22;;;;;;;13.03;10.70;;;;;;;16.52;74.46;101377.25;5082125;28;20221;-71
2021/08/19 01:08:49;;;;;;;11.17;10.07;;;;;;;16.39;75.01;101383.81;5080120;28;20229;-71
2021/08/19 01:11:17;;;;;;;12.63;10.43;;;;;;;16.35;75.40;101381.84;5079737;28;20718;-71
2021/08/19 01:13:43;;;;;;;11.13;10.13;;;;;;;16.02;76.58;101380.00;5081793;28;20274;-71
2021/08/19 01:16:10;;;;;;;11.07;9.90;;;;;;;16.16;76.23;101381.31;5082203;28;21245;-71
2021/08/19 01:18:44;;;;;;;12.83;11.07;;;;;;;16.24;76.59;101377.38;5085693;28;20250;-71
2021/08/19 01:21:12;;;;;;;11.70;10.63;;;;;;;16.34;76.08;101378.34;5080703;28;20262;-71
2021/08/19 01:23:38;;;;;;;12.47;10.83;;;;;;;16.25;76.32;101382.50;5082558;28;20230;-71
2021/08/19 01:26:07;;;;;;;11.97;10.87;;;;;;;16.13;77.10;101379.09;5081511;28;20210;-71
2021/08/19 01:28:35;;;;;;;12.90;11.60;;;;;;;16.41;77.24;101378.16;5083664;28;20266;-71
2021/08/19 01:31:01;;;;;;;14.87;12.47;;;;;;;16.11;78.14;101368.56;5086725;28;20399;-71
2021/08/19 01:33:28;;;;;;;12.97;11.77;;;;;;;16.27;78.24;101369.63;5087261;28;20243;-71
2021/08/19 01:35:54;;;;;;;15.13;13.60;;;;;;;16.33;78.18;101373.19;5085593;28;20217;-71
2021/08/19 01:38:28;;;;;;;15.57;12.87;;;;;;;16.39;77.78;101362.25;5084802;28;20271;-71
2021/08/19 01:40:55;;;;;;;14.87;13.40;;;;;;;16.75;76.89;101363.53;5086386;28;20626;-71
2021/08/19 01:43:22;;;;;;;14.13;12.40;;;;;;;16.72;76.81;101368.63;5083000;28;20580;-71
2021/08/19 01:45:50;;;;;;;14.07;12.70;;;;;;;16.81;76.00;101360.91;5085129;28;20213;-71
2021/08/19 01:48:16;;;;;;;13.63;12.07;;;;;;;16.82;75.96;101362.53;5084291;28;20217;-71
2021/08/19 01:50:42;;;;;;;14.00;12.70;;;;;;;16.81;75.73;101360.91;5086866;28;20215;-71
2021/08/19 01:53:09;;;;;;;13.27;12.03;;;;;;;16.95;74.76;101362.97;5086208;28;20241;-71
2021/08/19 01:55:35;;;;;;;13.13;11.80;;;;;;;16.97;74.94;101363.53;5085067;28;20610;-71
2021/08/19 01:58:02;;;;;;;14.50;13.10;;;;;;;16.80;75.26;101360.09;5088368;28;20851;-71
2021/08/19 02:00:28;;;;;;;14.00;12.53;;;;;;;16.88;75.07;101350.72;5085514;28;20297;-71
2021/08/19 02:02:56;;;;;;;13.23;11.70;;;;;;;16.90;74.55;101362.13;5085324;28;20209;-71
2021/08/19 02:05:22;;;;;;;14.17;12.60;;;;;;;16.75;75.26;101355.44;5086568;28;20226;-71
2021/08/19 02:07:49;;;;;;;13.07;11.77;;;;;;;16.83;74.93;101358.78;5083588;28;20211;-71
2021/08/19 02:10:15;;;;;;;14.30;12.70;;;;;;;16.63;75.38;101360.09;5084860;28;20209;-71
2021/08/19 02:12:41;;;;;;;15.30;13.70;;;;;;;16.86;74.75;101350.16;5085310;28;20236;-71
2021/08/19 02:15:09;;;;;;;14.77;13.23;;;;;;;17.02;74.35;101358.22;5086146;28;20814;-71
2021/08/19 02:17:35;;;;;;;14.93;13.43;;;;;;;17.06;73.81;101350.41;5085614;28;20210;-71
2021/08/19 02:20:03;;;;;;;15.40;13.90;;;;;;;16.99;74.14;101345.19;5085333;28;20252;-71
2021/08/19 02:22:30;;;;;;;15.33;13.83;;;;;;;16.99;74.10;101353.28;5085213;28;20821;-71
2021/08/19 02:24:56;;;;;;;16.33;13.87;;;;;;;16.80;74.55;101352.00;5086663;28;20238;-71
2021/08/19 02:27:22;;;;;;;16.80;15.00;;;;;;;16.90;74.83;101349.44;5083856;28;20643;-71
2021/08/19 02:29:49;;;;;;;16.20;14.63;;;;;;;16.71;75.42;101340.00;5088406;28;20217;-71
2021/08/19 02:32:16;;;;;;;16.07;14.60;;;;;;;16.90;75.08;101340.53;5086374;28;20292;-71
2021/08/19 02:34:43;;;;;;;15.57;14.07;;;;;;;17.05;74.33;101343.38;5085911;28;20244;-71
2021/08/19 02:37:10;;;;;;;15.43;13.93;;;;;;;17.04;74.35;101334.47;5083247;28;20210;-71
2021/08/19 02:39:37;;;;;;;16.07;14.73;;;;;;;16.93;74.98;101340.00;5085279;28;20226;-72
2021/08/19 02:42:04;;;;;;;17.80;16.10;;;;;;;16.79;75.78;101336.88;5085369;28;20902;-71
2021/08/19 02:44:30;;;;;;;16.47;14.90;;;;;;;16.87;75.33;101335.59;5082983;28;20217;-71
2021/08/19 02:46:56;;;;;;;16.47;14.80;;;;;;;16.97;74.97;101330.31;5083770;28;20217;-71
2021/08/19 02:49:23;;;;;;;15.50;14.10;;;;;;;17.01;74.63;101329.56;5083958;28;20791;-71
2021/08/19 02:51:49;;;;;;;15.57;13.90;;;;;;;17.07;74.59;101333.13;5083045;28;20624;-71
2021/08/19 02:54:17;;;;;;;15.77;14.20;;;;;;;16.87;75.24;101327.50;5085623;28;20234;-71
2021/08/19 02:56:43;;;;;;;15.27;13.97;;;;;;;17.08;74.44;101323.16;5084658;28;20565;-71
2021/08/19 02:59:09;;;;;;;15.47;14.03;;;;;;;16.83;75.63;101327.19;5083607;28;20212;-71
2021/08/19 03:01:36;;;;;;;15.07;13.67;;;;;;;16.82;75.35;101322.06;5081263;28;20219;-71
2021/08/19 03:04:02;;;;;;;15.20;13.70;;;;;;;16.77;75.84;101326.34;5084823;28;20267;-71
2021/08/19 03:06:29;;;;;;;15.03;13.63;;;;;;;17.04;74.94;101320.16;5088443;28;20271;-71
2021/08/19 03:08:55;;;;;;;15.30;13.90;;;;;;;16.90;75.28;101317.03;5084282;28;20234;-71
2021/08/19 03:11:23;;;;;;;15.03;13.73;;;;;;;16.74;76.30;101313.34;5084840;28;20810;-72
2021/08/19 03:13:49;;;;;;;15.10;13.70;;;;;;;16.84;75.95;101309.94;5082972;28;20237;-71
2021/08/19 03:16:16;;;;;;;16.70;15.20;;;;;;;16.99;75.73;101311.97;5083643;28;20233;-71
2021/08/19 03:18:42;;;;;;;17.00;15.40;;;;;;;17.15;74.96;101313.78;5083875;28;20217;-71
2021/08/19 03:21:09;;;;;;;17.27;15.63;;;;;;;17.09;75.23;101312.09;5085282;28;20647;-71
2021/08/19 03:23:36;;;;;;;16.90;15.27;;;;;;;16.88;75.79;101318.34;5086742;28;20594;-71
2021/08/19 03:26:04;;;;;;;16.93;15.17;;;;;;;17.12;75.25;101321.56;5085607;28;20323;-71
2021/08/19 03:28:32;;;;;;;16.53;14.83;;;;;;;17.15;74.93;101315.66;5086090;28;20221;-71
2021/08/19 03:30:58;;;;;;;16.67;15.07;;;;;;;17.10;74.98;101307.50;5088602;28;20217;-71
2021/08/19 03:33:25;;;;;;;17.23;15.50;;;;;;;17.18;74.84;101315.97;5085046;28;20691;-71
2021/08/19 03:35:51;;;;;;;17.23;15.40;;;;;;;17.11;75.37;101318.06;5083655;28;20282;-71
2021/08/19 03:38:18;;;;;;;16.50;15.00;;;;;;;16.62;77.50;101312.63;5082757;28;20562;-71
2021/08/19 03:40:44;;;;;;;16.40;14.77;;;;;;;16.69;77.56;101312.47;5082938;28;20210;-71
2021/08/19 03:43:10;;;;;;;16.37;14.97;;;;;;;16.81;77.48;101309.63;5082076;28;20601;-71
2021/08/19 03:45:38;;;;;;;16.87;15.17;;;;;;;16.85;76.98;101314.25;5083876;28;20863;-72
2021/08/19 03:48:05;;;;;;;17.07;15.17;;;;;;;17.07;76.63;101311.53;5085480;28;20267;-71
2021/08/19 03:50:33;;;;;;;18.77;15.10;;;;;;;17.18;76.25;101321.38;5082497;28;20215;-71
2021/08/19 03:53:00;;;;;;;18.50;15.43;;;;;;;17.10;76.37;101323.72;5083601;28;20292;-71
2021/08/19 03:55:26;;;;;;;17.13;15.53;;;;;;;17.13;76.88;101315.09;5084397;28;20213;-72
2021/08/19 03:57:52;;;;;;;17.10;15.50;;;;;;;17.29;76.08;101312.31;5083012;28;20219;-71
2021/08/19 04:00:20;;;;;;;17.03;15.33;;;;;;;17.23;76.27;101321.41;5085255;28;20637;-71
2021/08/19 04:02:47;;;;;;;18.13;16.43;;;;;;;17.34;76.94;101311.53;5082575;28;20635;-71
2021/08/19 04:05:14;;;;;;;17.10;15.40;;;;;;;17.43;76.46;101312.69;5083971;28;20244;-72
2021/08/19 04:07:40;;;;;;;17.53;15.67;;;;;;;17.09;77.54;101319.38;5083994;28;20267;-71
2021/08/19 04:10:08;;;;;;;19.57;17.63;;;;;;;17.22;77.67;101317.09;5082153;28;20241;-71
2021/08/19 04:12:35;;;;;;;22.63;17.23;;;;;;;17.26;77.55;101317.38;5084178;28;20229;-71
2021/08/19 04:15:02;;;;;;;18.43;16.57;;;;;;;17.37;77.19;101311.00;5084343;28;20959;-71
2021/08/19 04:17:29;;;;;;;19.30;17.20;;;;;;;17.42;76.77;101307.56;5082695;28;20671;-72
2021/08/19 04:19:57;;;;;;;23.70;19.13;;;;;;;17.08;78.33;101323.97;5081354;28;20563;-72
2021/08/19 04:22:23;;;;;;;23.70;21.23;;;;;;;16.45;81.17;101315.38;5081394;28;20211;-71
2021/08/19 04:24:50;;;;;;;25.13;21.97;;;;;;;16.84;80.50;101319.91;5082115;28;20221;-71
2021/08/19 04:27:16;;;;;;;26.53;23.73;;;;;;;16.81;80.33;101325.81;5082071;28;20215;-71
2021/08/19 04:29:43;;;;;;;29.00;25.03;;;;;;;16.74;80.57;101329.53;5083880;28;20221;-72
2021/08/19 04:32:09;;;;;;;38.40;34.33;;;;;;;16.35;82.73;101333.31;5086126;28;20898;-76
2021/08/19 04:34:35;;;;;;;31.87;27.13;;;;;;;16.61;81.66;101329.06;5083300;28;20233;-76
2021/08/19 04:37:04;;;;;;;33.97;28.73;;;;;;;16.95;80.66;101332.47;5082793;28;20275;-77
2021/08/19 04:39:30;;;;;;;36.63;26.27;;;;;;;16.97;80.05;101325.75;5083291;28;20292;-76
2021/08/19 04:41:56;;;;;;;38.17;30.13;;;;;;;16.79;81.02;101333.38;5083181;28;20257;-76
2021/08/19 04:44:23;;;;;;;33.93;28.40;;;;;;;16.80;81.19;101322.31;5082531;28;20209;-77
2021/08/19 04:46:49;;;;;;;36.57;29.47;;;;;;;16.57;82.10;101328.75;5082822;28;20210;-76
2021/08/19 04:49:16;;;;;;;41.57;31.70;;;;;;;16.85;81.18;101325.06;5081188;28;21050;-76
2021/08/19 04:51:43;;;;;;;36.83;29.57;;;;;;;17.11;79.92;101322.63;5080466;28;20633;-76
2021/08/19 04:54:11;;;;;;;34.83;27.83;;;;;;;17.04;80.07;101329.06;5081466;28;20582;-75
2021/08/19 04:56:38;;;;;;;30.90;24.53;;;;;;;16.77;81.35;101322.81;5083339;28;20260;-76
2021/08/19 04:59:04;;;;;;;32.63;25.73;;;;;;;16.85;81.72;101335.84;5081088;28;20213;-76
2021/08/19 05:01:31;;;;;;;41.77;27.47;;;;;;;16.87;81.66;101324.81;5083377;28;20222;-75
2021/08/19 05:03:59;;;;;;;36.33;27.07;;;;;;;17.13;81.33;101328.59;5081811;28;20205;-75
2021/08/19 05:06:25;;;;;;;33.33;25.73;;;;;;;16.88;81.59;101324.56;5080888;28;20568;-76
2021/08/19 05:08:52;;;;;;;39.30;26.97;;;;;;;16.59;83.28;101325.78;5079932;28;20592;-75
2021/08/19 05:11:19;;;;;;;36.07;27.10;;;;;;;16.83;82.82;101329.09;5082718;28;20676;-75
2021/08/19 05:13:46;;;;;;;36.93;26.33;;;;;;;17.10;82.08;101319.13;5078827;28;20226;-75
2021/08/19 05:16:12;;;;;;;36.47;27.03;;;;;;;16.89;82.96;101323.47;5081352;28;20234;-74
2021/08/19 05:18:40;;;;;;;29.57;24.03;;;;;;;16.98;82.76;101331.94;5082347;28;20214;-74
2021/08/19 05:21:06;;;;;;;39.70;27.80;;;;;;;17.26;81.73;101326.31;5081190;28;20214;-74
2021/08/19 05:23:33;;;;;;;33.37;25.63;;;;;;;17.05;81.36;101329.88;5081720;28;20838;-74
2021/08/19 05:25:59;;;;;;;35.10;26.60;;;;;;;16.79;83.45;101323.38;5081786;28;20272;-74
2021/08/19 05:28:27;;;;;;;30.37;24.77;;;;;;;16.83;83.43;101327.19;5081846;28;21088;-74
2021/08/19 05:30:53;;;;;;;30.87;25.63;;;;;;;17.17;82.37;101330.56;5079016;28;20213;-74
2021/08/19 05:33:19;;;;;;;27.50;23.67;;;;;;;17.08;82.68;101331.25;5080881;28;21283;-74
2021/08/19 05:35:46;;;;;;;29.13;24.47;;;;;;;17.02;82.64;101333.06;5082028;28;20576;-74
2021/08/19 05:38:13;;;;;;;28.27;23.57;;;;;;;17.04;82.74;101334.47;5079551;28;20282;-75
2021/08/19 05:40:39;;;;;;;34.90;25.80;;;;;;;17.13;82.42;101332.09;5080889;28;20220;-75
2021/08/19 05:43:06;;;;;;;33.53;26.43;;;;;;;17.09;82.50;101340.97;5079716;28;20204;-75
2021/08/19 05:45:34;;;;;;;40.17;26.67;;;;;;;17.23;81.98;101339.50;5080786;28;20206;-75
2021/08/19 05:48:01;;;;;;;28.80;23.43;;;;;;;17.62;80.32;101343.66;5081214;28;20207;-75
2021/08/19 05:50:28;;;;;;;38.43;27.73;;;;;;;17.38;81.38;101346.94;5080769;28;20285;-75
2021/08/19 05:52:54;;;;;;;27.40;23.17;;;;;;;17.39;80.74;101345.88;5082596;28;20221;-75
2021/08/19 05:55:21;;;;;;;33.00;25.60;;;;;;;17.31;81.63;101341.75;5081285;28;20715;-75
2021/08/19 05:57:47;;;;;;;34.80;26.73;;;;;;;17.69;80.27;101345.38;5081750;28;20213;-75
2021/08/19 06:00:14;;;;;;;28.80;24.47;;;;;;;17.62;79.71;101346.34;5080815;28;20725;-75
2021/08/19 06:02:42;;;;;;;33.90;25.17;;;;;;;17.80;79.82;101350.59;5078745;28;20220;-75
2021/08/19 06:05:10;;;;;;;33.20;24.43;;;;;;;17.67;79.78;101351.00;5067119;28;20258;-75
2021/08/19 06:07:37;;;;;;;31.27;25.20;;;;;;;17.46;80.87;101346.50;5080539;28;20548;-75
2021/08/19 06:10:05;;;;;;;34.13;24.90;;;;;;;17.44;81.98;101354.03;5077261;28;20241;-75
2021/08/19 06:12:31;;;;;;;35.43;25.40;;;;;;;17.21;83.17;101361.38;5075894;28;20306;-75
2021/08/19 06:14:57;;;;;;;41.40;26.63;;;;;;;17.24;83.52;101355.44;5081516;28;20234;-74
2021/08/19 06:17:24;;;;;;;29.23;23.27;;;;;;;17.22;83.55;101356.78;5083282;28;20786;-75
2021/08/19 06:19:52;;;;;;;32.73;24.70;;;;;;;17.34;83.24;101355.56;5082724;28;20261;-75
2021/08/19 06:22:18;;;;;;;31.10;24.97;;;;;;;17.20;84.01;101359.75;5088555;28;20219;-75
2021/08/19 06:24:45;;;;;;;34.17;25.77;;;;;;;17.17;83.44;101357.56;5083419;28;20246;-75
2021/08/19 06:27:11;;;;;;;37.27;25.77;;;;;;;17.22;83.84;101352.19;5083015;28;20276;-75
2021/08/19 06:29:38;;;;;;;37.47;25.60;;;;;;;17.15;84.03;101354.31;5081827;28;20225;-76
2021/08/19 06:32:05;;;;;;;38.00;26.60;;;;;;;17.18;83.81;101353.78;5084551;28;20625;-75
2021/08/19 06:34:32;;;;;;;42.43;27.53;;;;;;;17.12;84.51;101352.09;5086672;28;20236;-75
2021/08/19 06:36:59;;;;;;;35.27;27.03;;;;;;;17.38;83.59;101353.16;5086087;28;20296;-76
2021/08/19 06:39:26;;;;;;;34.27;24.50;;;;;;;17.48;83.08;101353.25;5082310;28;20219;-76
2021/08/19 06:41:53;;;;;;;33.97;25.57;;;;;;;17.49;82.62;101359.47;5085448;28;20219;-76
2021/08/19 06:44:19;;;;;;;35.07;25.90;;;;;;;17.50;83.36;101348.41;5084611;28;20211;-76
2021/08/19 06:46:45;;;;;;;37.33;26.40;;;;;;;17.40;83.47;101348.31;5081109;28;20257;-76
2021/08/19 06:49:12;;;;;;;36.40;25.17;;;;;;;17.29;83.83;101363.63;5084794;28;20577;-76
2021/08/19 06:51:38;;;;;;;35.40;25.23;;;;;;;17.54;83.66;101359.53;5084976;28;20882;-76
2021/08/19 06:54:06;;;;;;;36.43;26.70;;;;;;;17.53;82.95;101347.91;5083464;28;20243;-76
2021/08/19 06:56:32;;;;;;;35.17;24.77;;;;;;;17.68;82.94;101354.53;5085496;28;20214;-76
2021/08/19 06:58:59;;;;;;;33.27;25.70;;;;;;;17.65;82.52;101355.81;5084427;28;20264;-76
2021/08/19 07:01:25;;;;;;;36.70;26.40;;;;;;;17.80;82.15;101353.31;5083051;28;20260;-76
2021/08/19 07:03:52;;;;;;;34.53;26.43;;;;;;;17.83;82.04;101354.69;5080754;28;20213;-76
2021/08/19 07:06:18;;;;;;;35.40;25.67;;;;;;;17.97;81.71;101365.88;5087379;28;20228;-76
2021/08/19 07:08:45;;;;;;;33.77;26.20;;;;;;;17.68;82.71;101358.03;5086690;28;20240;-76
2021/08/19 07:11:13;;;;;;;35.70;26.93;;;;;;;17.75;82.84;101355.13;5085132;28;20223;-76
2021/08/19 07:13:39;;;;;;;31.67;24.63;;;;;;;17.98;81.55;101351.25;5084154;28;20256;-76
2021/08/19 07:16:06;;;;;;;36.13;26.67;;;;;;;17.84;81.89;101359.00;5086440;28;20235;-76
2021/08/19 07:18:33;;;;;;;38.43;27.80;;;;;;;17.88;82.18;101355.50;5086124;28;20266;-76
2021/08/19 07:20:59;;;;;;;33.87;26.30;;;;;;;17.96;81.25;101356.13;5081215;28;20216;-77
2021/08/19 07:23:26;;;;;;;32.83;25.57;;;;;;;17.93;81.64;101355.56;5084196;28;20899;-76
2021/08/19 07:25:52;;;;;;;31.73;25.97;;;;;;;17.92;81.37;101353.94;5083783;28;20601;-76
2021/08/19 07:28:20;;;;;;;33.70;25.60;;;;;;;17.97;81.97;101350.44;5083554;28;20594;-77
2021/08/19 07:30:46;;;;;;;30.30;25.80;;;;;;;18.21;80.87;101351.69;5082815;28;20211;-77
2021/08/19 07:33:13;;;;;;;32.73;25.87;;;;;;;18.27;80.50;101357.94;5081182;28;20260;-76
2021/08/19 07:35:39;;;;;;;29.30;23.70;;;;;;;18.44;80.06;101355.91;5082943;28;20216;-77
2021/08/19 07:38:06;;;;;;;28.60;25.30;;;;;;;18.20;80.69;101362.78;5084467;28;20678;-77
2021/08/19 07:40:33;;;;;;;33.70;25.13;;;;;;;18.24;81.10;101362.00;5084899;28;20207;-75
2021/08/19 07:43:00;;;;;;;28.17;24.43;;;;;;;18.09;81.15;101367.31;5084012;28;20238;-75
2021/08/19 07:45:29;;;;;;;29.93;23.73;;;;;;;17.86;82.20;101363.06;5083387;28;20646;-75
2021/08/19 07:47:56;;;;;;;30.07;23.87;;;;;;;17.82;82.75;101366.56;5082073;28;20310;-75
2021/08/19 07:50:22;;;;;;;29.97;23.30;;;;;;;17.94;81.85;101367.19;5082397;28;20273;-75
2021/08/19 07:52:49;;;;;;;32.47;24.67;;;;;;;17.94;82.14;101372.59;5081606;28;20571;-75
2021/08/19 07:55:15;;;;;;;28.90;24.13;;;;;;;18.14;81.12;101374.63;5082240;28;20284;-75
2021/08/19 07:57:44;;;;;;;29.60;24.33;;;;;;;17.91;82.08;101371.25;5081659;28;20633;-75
2021/08/19 08:00:11;;;;;;;27.47;22.77;;;;;;;17.58;83.65;101374.16;5080236;28;20208;-75
2021/08/19 08:02:39;;;;;;;30.37;22.67;;;;;;;17.81;82.83;101375.75;5081195;28;20224;-75
2021/08/19 08:05:07;;;;;;;27.50;23.13;;;;;;;17.82;82.34;101380.88;5081150;28;21045;-75
2021/08/19 08:07:34;;;;;;;27.90;23.63;;;;;;;17.61;83.54;101381.75;5080613;28;20220;-74
2021/08/19 08:10:00;;;;;;;32.70;24.50;;;;;;;17.71;83.57;101389.16;5080492;28;20641;-75
2021/08/19 08:12:26;;;;;;;35.43;24.57;;;;;;;17.74;83.22;101383.25;5086398;28;20207;-75
2021/08/19 08:14:53;;;;;;;30.67;24.70;;;;;;;17.94;83.10;101378.00;5084406;28;20298;-75
2021/08/19 08:17:19;;;;;;;30.80;23.53;;;;;;;17.77;82.95;101385.41;5080709;28;20247;-75
2021/08/19 08:19:47;;;;;;;30.60;22.40;;;;;;;17.87;82.81;101382.81;5083247;28;20508;-75
2021/08/19 08:22:14;;;;;;;29.60;24.10;;;;;;;17.93;82.94;101384.50;5082139;28;20239;-76
2021/08/19 08:24:40;;;;;;;29.07;21.80;;;;;;;18.21;81.52;101391.47;5085756;28;20235;-76
2021/08/19 08:27:07;;;;;;;35.90;23.90;;;;;;;18.17;81.79;101396.59;5081835;28;20264;-76
2021/08/19 08:29:34;;;;;;;33.73;24.43;;;;;;;18.15;81.95;101387.88;5080731;28;20215;-75
2021/08/19 08:32:05;;;;;;;29.53;23.07;;;;;;;17.96;82.56;101397.50;5082571;28;20216;-75
2021/08/19 08:34:31;;;;;;;28.83;22.57;;;;;;;17.89;82.97;101396.88;5082536;28;20235;-75
2021/08/19 08:36:59;;;;;;;30.17;22.90;;;;;;;17.69;83.21;101396.72;5082947;28;20209;-75
2021/08/19 08:39:25;;;;;;;34.70;24.93;;;;;;;17.46;84.55;101398.63;5082852;28;20224;-75
2021/08/19 08:41:52;;;;;;;33.87;23.93;;;;;;;17.58;84.59;101403.88;5081284;28;20211;-75
2021/08/19 08:44:20;;;;;;;34.23;23.37;;;;;;;17.62;84.66;101400.41;5081664;28;20219;-75
2021/08/19 08:46:47;;;;;;;35.40;25.13;;;;;;;17.75;83.84;101412.72;5079788;28;20210;-75
2021/08/19 08:49:14;;;;;;;37.30;25.57;;;;;;;17.61;84.33;101408.75;5078066;28;20211;-75
2021/08/19 08:51:43;;;;;;;32.20;23.93;;;;;;;17.48;84.89;101407.28;5081941;28;20215;-75
2021/08/19 08:54:11;;;;;;;34.63;24.10;;;;;;;17.53;84.79;101420.03;5081538;28;20714;-75
2021/08/19 08:56:38;;;;;;;38.30;26.90;;;;;;;17.43;85.24;101406.44;5078768;28;20216;-76
2021/08/19 08:59:04;;;;;;;34.47;24.57;;;;;;;17.70;84.28;101417.28;5082472;28;20210;-75
2021/08/19 09:01:31;;;;;;;30.40;22.87;;;;;;;17.57;84.11;101416.56;5081258;28;20677;-75
2021/08/19 09:03:57;;;;;;;32.20;23.50;;;;;;;17.78;84.62;101419.47;5082031;28;20212;-75
2021/08/19 09:06:36;;;;;;;27.27;21.57;;;;;;;17.83;83.36;101420.38;5083215;28;20247;-75
2021/08/19 09:09:16;;;;;;;28.53;21.87;;;;;;;18.01;82.91;101415.63;5081989;28;20286;-75
2021/08/19 09:11:43;;;;;;;31.83;21.93;;;;;;;18.02;82.71;101425.38;5082927;28;20210;-76
2021/08/19 09:14:21;;;;;;;27.10;20.40;;;;;;;18.00;82.52;101417.53;5082421;28;20284;-77
2021/08/19 09:16:48;;;;;;;27.57;21.37;;;;;;;18.02;82.36;101426.19;5077541;28;20237;-76
2021/08/19 09:19:15;;;;;;;28.57;21.73;;;;;;;18.08;82.63;101421.66;5081844;28;20268;-76
2021/08/19 09:21:53;;;;;;;28.37;20.97;;;;;;;17.93;82.93;101428.56;5083120;28;20215;-79
2021/08/19 09:24:22;;;;;;;29.20;21.23;;;;;;;17.71;84.32;101425.13;5088205;28;20300;-79
2021/08/19 09:26:51;;;;;;;31.87;22.57;;;;;;;17.86;83.82;101430.66;5083719;28;20229;-77
2021/08/19 09:29:20;;;;;;;33.80;22.83;;;;;;;17.97;83.43;101430.75;5079732;28;20216;-77
2021/08/19 09:31:46;;;;;;;34.37;22.43;;;;;;;17.69;83.93;101432.66;5080046;28;20299;-77
2021/08/19 09:34:13;;;;;;;25.43;20.63;;;;;;;17.39;84.49;101438.53;5081351;28;20229;-75
2021/08/19 09:36:40;;;;;;;28.60;21.67;;;;;;;17.47;84.68;101445.38;5079137;28;20204;-76
2021/08/19 09:39:08;;;;;;;27.73;19.70;;;;;;;17.28;84.81;101434.91;5080122;28;20228;-76
2021/08/19 09:41:50;;;;;;;25.57;18.13;;;;;;;17.33;84.91;101437.66;5081857;28;21463;-77
2021/08/19 09:44:28;;;;;;;25.20;16.13;;;;;;;17.32;84.30;101438.72;5079946;28;20638;-76
2021/08/19 09:46:54;;;;;;;20.07;14.93;;;;;;;17.41;83.73;101443.69;5081082;28;20277;-76
2021/08/19 09:49:24;;;;;;;20.83;15.03;;;;;;;17.29;83.70;101446.53;5081330;28;20585;-76
2021/08/19 09:52:05;;;;;;;22.33;15.57;;;;;;;17.28;83.75;101440.31;5082863;28;20218;-76
2021/08/19 09:54:33;;;;;;;16.60;13.63;;;;;;;17.32;82.74;101446.84;5082831;28;20234;-76
2021/08/19 09:57:00;;;;;;;17.07;13.13;;;;;;;17.28;83.42;101434.91;5084673;28;20288;-75
2021/08/19 09:59:33;;;;;;;17.17;12.23;;;;;;;17.34;82.70;101444.69;5085823;28;20679;-76
2021/08/19 10:02:00;;;;;;;17.47;12.03;;;;;;;17.57;81.92;101442.78;5084318;28;20220;-75
2021/08/19 10:04:27;;;;;;;17.27;13.63;;;;;;;17.63;82.47;101436.34;5086793;28;20248;-75
2021/08/19 10:06:54;;;;;;;16.87;13.10;;;;;;;17.76;81.68;101435.97;5084867;28;20217;-75
2021/08/19 10:09:21;;;;;;;18.27;13.57;;;;;;;17.74;81.73;101435.41;5084835;28;20293;-75
2021/08/19 10:11:48;;;;;;;15.33;11.80;;;;;;;17.84;81.73;101440.91;5086095;28;20218;-75
2021/08/19 10:14:18;;;;;;;14.97;11.47;;;;;;;17.62;82.42;101438.22;5083841;28;20283;-75
2021/08/19 10:16:45;;;;;;;10.50;8.87;;;;;;;17.68;81.25;101433.72;5083657;28;20639;-75
2021/08/19 10:19:13;;;;;;;10.80;8.93;;;;;;;17.66;81.13;101435.84;5084217;28;20265;-75
2021/08/19 10:21:43;;;;;;;10.83;9.73;;;;;;;17.74;81.42;101440.81;5084714;28;20216;-75
2021/08/19 10:24:09;;;;;;;10.40;8.40;;;;;;;17.59;80.89;101440.63;5083603;28;20230;-75
2021/08/19 10:26:35;;;;;;;10.80;8.70;;;;;;;17.47;80.65;101440.78;5084469;28;20345;-75
2021/08/19 10:29:05;;;;;;;12.33;10.93;;;;;;;17.61;82.00;101430.38;5084475;28;20218;-76
2021/08/19 10:31:47;;;;;;;11.20;10.10;;;;;;;17.55;81.87;101442.22;5084321;28;20203;-75
2021/08/19 10:34:15;;;;;;;11.90;9.53;;;;;;;17.66;81.10;101446.66;5087696;28;20558;-75
2021/08/19 10:36:54;;;;;;;9.90;8.80;;;;;;;17.99;79.47;101442.94;5082930;28;20672;-75
2021/08/19 10:39:38;;;;;;;10.73;9.63;;;;;;;18.13;80.51;101440.59;5084207;28;20229;-75
2021/08/19 10:42:09;;;;;;;9.77;8.10;;;;;;;18.24;79.68;101442.31;5085084;28;20259;-75
2021/08/19 10:44:36;;;;;;;12.37;8.57;;;;;;;18.05;78.50;101435.69;5084005;28;20333;-73
2021/08/19 10:47:04;;;;;;;9.70;8.10;;;;;;;18.11;78.69;101437.34;5082521;28;20215;-74
2021/08/19 10:49:36;;;;;;;9.70;7.10;;;;;;;18.07;78.95;101437.06;5083273;28;20232;-74
2021/08/19 10:52:26;;;;;;;11.63;7.60;;;;;;;18.26;78.48;101436.66;5083501;28;20212;-75
2021/08/19 10:55:11;;;;;;;11.33;8.53;;;;;;;18.33;78.36;101426.44;5085237;28;20223;-75
2021/08/19 10:57:45;;;;;;;9.07;7.90;;;;;;;18.39;78.53;101436.19;5083719;28;20219;-74
2021/08/19 11:00:13;;;;;;;10.27;8.80;;;;;;;18.54;78.74;101441.72;5082125;28;20218;-74
2021/08/19 11:02:42;;;;;;;10.13;7.07;;;;;;;18.14;79.36;101436.81;5083892;28;20220;-74
2021/08/19 11:05:10;;;;;;;14.27;7.10;;;;;;;18.27;78.29;101430.16;5086615;28;20746;-74
2021/08/19 11:07:50;;;;;;;9.33;7.60;;;;;;;18.60;78.02;101435.25;5083826;28;20263;-74
2021/08/19 11:10:23;;;;;;;8.80;7.67;;;;;;;18.15;78.07;101444.69;5084280;28;20622;-74
2021/08/19 11:12:50;;;;;;;7.47;6.77;;;;;;;18.05;78.96;101462.75;5085931;28;20538;-74